sensor_id;sensor_type;location;lat;lon;timestamp;P1;durP1;ratioP1;P2;durP2;ratioP2
23270;SDS011;11804;51.118;17.058;2023-04-09T00:01:22;45.03;;;29.97;;
23270;SDS011;11804;51.118;17.058;2023-04-09T00:03:50;45.80;;;29.47;;
23270;SDS011;11804;51.118;17.058;2023-04-09T00:06:17;48.53;;;31.33;;
23270;SDS011;11804;51.118;17.058;2023-04-09T00:08:45;47.33;;;29.87;;
23270;SDS011;11804;51.118;17.058;2023-04-09T00:11:12;47.47;;;29.83;;
23270;SDS011;11804;51.118;17.058;2023-04-09T00:13:40;44.40;;;29.77;;
23270;SDS011;11804;51.118;17.058;2023-04-09T00:16:08;47.10;;;30.77;;
23270;SDS011;11804;51.118;17.058;2023-04-09T00:18:35;46.47;;;30.60;;
23270;SDS011;11804;51.118;17.058;2023-04-09T00:21:03;46.77;;;30.73;;
23270;SDS011;11804;51.118;17.058;2023-04-09T00:23:31;48.60;;;30.33;;
23270;SDS011;11804;51.118;17.058;2023-04-09T00:26:00;47.37;;;30.53;;
23270;SDS011;11804;51.118;17.058;2023-04-09T00:28:27;47.00;;;30.37;;
23270;SDS011;11804;51.118;17.058;2023-04-09T00:30:55;43.97;;;29.80;;
23270;SDS011;11804;51.118;17.058;2023-04-09T00:33:23;45.73;;;29.43;;
23270;SDS011;11804;51.118;17.058;2023-04-09T00:35:51;48.27;;;30.63;;
23270;SDS011;11804;51.118;17.058;2023-04-09T00:38:19;46.67;;;30.03;;
23270;SDS011;11804;51.118;17.058;2023-04-09T00:40:49;44.43;;;30.43;;
23270;SDS011;11804;51.118;17.058;2023-04-09T00:43:17;42.73;;;28.97;;
23270;SDS011;11804;51.118;17.058;2023-04-09T00:45:45;45.57;;;29.70;;
23270;SDS011;11804;51.118;17.058;2023-04-09T00:48:13;48.60;;;31.17;;
23270;SDS011;11804;51.118;17.058;2023-04-09T00:50:42;43.83;;;29.10;;
23270;SDS011;11804;51.118;17.058;2023-04-09T00:53:10;46.27;;;30.03;;
23270;SDS011;11804;51.118;17.058;2023-04-09T00:55:38;44.23;;;28.73;;
23270;SDS011;11804;51.118;17.058;2023-04-09T00:58:06;44.07;;;29.73;;
23270;SDS011;11804;51.118;17.058;2023-04-09T01:00:34;45.03;;;29.03;;
23270;SDS011;11804;51.118;17.058;2023-04-09T01:03:02;44.40;;;29.37;;
23270;SDS011;11804;51.118;17.058;2023-04-09T01:08:35;45.40;;;28.57;;
23270;SDS011;11804;51.118;17.058;2023-04-09T01:14:10;43.87;;;28.33;;
23270;SDS011;11804;51.118;17.058;2023-04-09T01:16:48;42.70;;;29.07;;
23270;SDS011;11804;51.118;17.058;2023-04-09T01:19:20;44.20;;;28.77;;
23270;SDS011;11804;51.118;17.058;2023-04-09T01:22:00;40.93;;;27.47;;
23270;SDS011;11804;51.118;17.058;2023-04-09T01:27:06;43.03;;;29.20;;
23270;SDS011;11804;51.118;17.058;2023-04-09T01:29:38;43.43;;;29.47;;
23270;SDS011;11804;51.118;17.058;2023-04-09T01:32:07;42.70;;;28.77;;
23270;SDS011;11804;51.118;17.058;2023-04-09T01:34:36;42.63;;;28.03;;
23270;SDS011;11804;51.118;17.058;2023-04-09T01:37:04;44.47;;;29.27;;
23270;SDS011;11804;51.118;17.058;2023-04-09T01:39:33;44.00;;;30.10;;
23270;SDS011;11804;51.118;17.058;2023-04-09T01:42:03;44.43;;;29.70;;
23270;SDS011;11804;51.118;17.058;2023-04-09T01:44:34;41.67;;;28.67;;
23270;SDS011;11804;51.118;17.058;2023-04-09T01:47:05;43.37;;;29.40;;
23270;SDS011;11804;51.118;17.058;2023-04-09T01:49:35;43.77;;;30.37;;
23270;SDS011;11804;51.118;17.058;2023-04-09T01:52:04;45.57;;;30.60;;
23270;SDS011;11804;51.118;17.058;2023-04-09T01:54:32;46.10;;;29.80;;
23270;SDS011;11804;51.118;17.058;2023-04-09T01:57:00;46.20;;;30.63;;
23270;SDS011;11804;51.118;17.058;2023-04-09T01:59:27;46.60;;;29.23;;
23270;SDS011;11804;51.118;17.058;2023-04-09T02:02:09;46.40;;;29.97;;
23270;SDS011;11804;51.118;17.058;2023-04-09T02:04:39;47.53;;;31.20;;
23270;SDS011;11804;51.118;17.058;2023-04-09T02:07:21;48.47;;;31.20;;
23270;SDS011;11804;51.118;17.058;2023-04-09T02:09:57;48.77;;;30.50;;
23270;SDS011;11804;51.118;17.058;2023-04-09T02:12:26;48.27;;;31.83;;
23270;SDS011;11804;51.118;17.058;2023-04-09T02:14:57;47.93;;;30.97;;
23270;SDS011;11804;51.118;17.058;2023-04-09T02:17:26;48.93;;;31.27;;
23270;SDS011;11804;51.118;17.058;2023-04-09T02:19:54;49.63;;;33.47;;
23270;SDS011;11804;51.118;17.058;2023-04-09T02:22:22;48.53;;;32.10;;
23270;SDS011;11804;51.118;17.058;2023-04-09T02:24:49;49.43;;;32.70;;
23270;SDS011;11804;51.118;17.058;2023-04-09T02:27:17;52.10;;;33.10;;
23270;SDS011;11804;51.118;17.058;2023-04-09T02:29:44;50.70;;;33.70;;
23270;SDS011;11804;51.118;17.058;2023-04-09T02:32:12;51.70;;;33.60;;
23270;SDS011;11804;51.118;17.058;2023-04-09T02:34:40;48.03;;;32.93;;
23270;SDS011;11804;51.118;17.058;2023-04-09T02:37:07;51.70;;;33.50;;
23270;SDS011;11804;51.118;17.058;2023-04-09T02:39:35;49.33;;;33.50;;
23270;SDS011;11804;51.118;17.058;2023-04-09T02:42:03;51.33;;;33.60;;
23270;SDS011;11804;51.118;17.058;2023-04-09T02:44:32;52.00;;;33.87;;
23270;SDS011;11804;51.118;17.058;2023-04-09T02:47:00;54.23;;;34.13;;
23270;SDS011;11804;51.118;17.058;2023-04-09T02:49:28;51.47;;;33.73;;
23270;SDS011;11804;51.118;17.058;2023-04-09T02:51:57;52.60;;;33.37;;
23270;SDS011;11804;51.118;17.058;2023-04-09T02:54:25;52.80;;;33.70;;
23270;SDS011;11804;51.118;17.058;2023-04-09T02:56:54;50.17;;;33.53;;
23270;SDS011;11804;51.118;17.058;2023-04-09T02:59:22;52.20;;;33.33;;
23270;SDS011;11804;51.118;17.058;2023-04-09T03:01:49;53.60;;;34.67;;
23270;SDS011;11804;51.118;17.058;2023-04-09T03:04:17;51.07;;;33.27;;
23270;SDS011;11804;51.118;17.058;2023-04-09T03:06:45;52.73;;;35.23;;
23270;SDS011;11804;51.118;17.058;2023-04-09T03:09:12;53.87;;;35.10;;
23270;SDS011;11804;51.118;17.058;2023-04-09T03:11:40;51.80;;;34.73;;
23270;SDS011;11804;51.118;17.058;2023-04-09T03:14:07;52.97;;;34.33;;
23270;SDS011;11804;51.118;17.058;2023-04-09T03:16:35;55.33;;;36.13;;
23270;SDS011;11804;51.118;17.058;2023-04-09T03:19:03;56.70;;;34.87;;
23270;SDS011;11804;51.118;17.058;2023-04-09T03:21:30;52.23;;;33.97;;
23270;SDS011;11804;51.118;17.058;2023-04-09T03:23:58;53.20;;;34.63;;
23270;SDS011;11804;51.118;17.058;2023-04-09T03:26:26;55.83;;;34.17;;
23270;SDS011;11804;51.118;17.058;2023-04-09T03:28:56;52.40;;;34.23;;
23270;SDS011;11804;51.118;17.058;2023-04-09T03:31:23;57.67;;;35.97;;
23270;SDS011;11804;51.118;17.058;2023-04-09T03:33:51;53.73;;;34.73;;
23270;SDS011;11804;51.118;17.058;2023-04-09T03:36:19;52.27;;;34.87;;
23270;SDS011;11804;51.118;17.058;2023-04-09T03:38:46;50.17;;;34.07;;
23270;SDS011;11804;51.118;17.058;2023-04-09T03:41:14;52.50;;;34.07;;
23270;SDS011;11804;51.118;17.058;2023-04-09T03:43:42;51.40;;;33.93;;
23270;SDS011;11804;51.118;17.058;2023-04-09T03:46:16;52.57;;;34.87;;
23270;SDS011;11804;51.118;17.058;2023-04-09T03:48:44;53.47;;;35.70;;
23270;SDS011;11804;51.118;17.058;2023-04-09T03:51:12;52.37;;;35.10;;
23270;SDS011;11804;51.118;17.058;2023-04-09T03:53:41;54.47;;;35.47;;
23270;SDS011;11804;51.118;17.058;2023-04-09T03:56:08;52.43;;;35.17;;
23270;SDS011;11804;51.118;17.058;2023-04-09T03:58:36;55.33;;;35.50;;
23270;SDS011;11804;51.118;17.058;2023-04-09T04:01:04;59.03;;;36.93;;
23270;SDS011;11804;51.118;17.058;2023-04-09T04:03:31;56.90;;;36.27;;
23270;SDS011;11804;51.118;17.058;2023-04-09T04:06:02;56.83;;;37.63;;
23270;SDS011;11804;51.118;17.058;2023-04-09T04:08:30;56.67;;;35.90;;
23270;SDS011;11804;51.118;17.058;2023-04-09T04:11:04;56.47;;;36.70;;
23270;SDS011;11804;51.118;17.058;2023-04-09T04:13:31;57.40;;;37.23;;
23270;SDS011;11804;51.118;17.058;2023-04-09T04:15:59;60.23;;;38.33;;
23270;SDS011;11804;51.118;17.058;2023-04-09T04:18:27;62.47;;;40.13;;
23270;SDS011;11804;51.118;17.058;2023-04-09T04:20:54;69.43;;;42.93;;
23270;SDS011;11804;51.118;17.058;2023-04-09T04:23:22;67.37;;;43.23;;
23270;SDS011;11804;51.118;17.058;2023-04-09T04:25:51;67.70;;;42.40;;
23270;SDS011;11804;51.118;17.058;2023-04-09T04:28:19;66.80;;;42.23;;
23270;SDS011;11804;51.118;17.058;2023-04-09T04:30:46;69.50;;;43.23;;
23270;SDS011;11804;51.118;17.058;2023-04-09T04:33:14;66.07;;;42.23;;
23270;SDS011;11804;51.118;17.058;2023-04-09T04:35:41;61.30;;;40.40;;
23270;SDS011;11804;51.118;17.058;2023-04-09T04:38:09;62.47;;;40.57;;
23270;SDS011;11804;51.118;17.058;2023-04-09T04:40:37;58.23;;;37.53;;
23270;SDS011;11804;51.118;17.058;2023-04-09T04:43:04;59.50;;;38.27;;
23270;SDS011;11804;51.118;17.058;2023-04-09T04:45:32;57.90;;;38.37;;
23270;SDS011;11804;51.118;17.058;2023-04-09T04:48:00;63.37;;;40.57;;
23270;SDS011;11804;51.118;17.058;2023-04-09T04:50:27;59.13;;;39.70;;
23270;SDS011;11804;51.118;17.058;2023-04-09T04:52:55;62.67;;;40.70;;
23270;SDS011;11804;51.118;17.058;2023-04-09T04:55:22;60.77;;;39.30;;
23270;SDS011;11804;51.118;17.058;2023-04-09T04:57:50;62.27;;;40.73;;
23270;SDS011;11804;51.118;17.058;2023-04-09T05:00:19;64.40;;;39.57;;
23270;SDS011;11804;51.118;17.058;2023-04-09T05:02:47;64.63;;;41.63;;
23270;SDS011;11804;51.118;17.058;2023-04-09T05:05:16;60.43;;;39.53;;
23270;SDS011;11804;51.118;17.058;2023-04-09T05:07:43;62.23;;;41.57;;
23270;SDS011;11804;51.118;17.058;2023-04-09T05:10:11;67.13;;;42.93;;
23270;SDS011;11804;51.118;17.058;2023-04-09T05:12:40;60.37;;;40.07;;
23270;SDS011;11804;51.118;17.058;2023-04-09T05:15:08;63.33;;;41.17;;
23270;SDS011;11804;51.118;17.058;2023-04-09T05:17:35;61.30;;;39.47;;
23270;SDS011;11804;51.118;17.058;2023-04-09T05:20:03;62.63;;;41.47;;
23270;SDS011;11804;51.118;17.058;2023-04-09T05:22:31;62.40;;;40.27;;
23270;SDS011;11804;51.118;17.058;2023-04-09T05:25:01;63.23;;;41.03;;
23270;SDS011;11804;51.118;17.058;2023-04-09T05:27:29;61.13;;;40.20;;
23270;SDS011;11804;51.118;17.058;2023-04-09T05:29:56;64.23;;;40.37;;
23270;SDS011;11804;51.118;17.058;2023-04-09T05:32:24;58.13;;;38.60;;
23270;SDS011;11804;51.118;17.058;2023-04-09T05:34:52;66.83;;;39.97;;
23270;SDS011;11804;51.118;17.058;2023-04-09T05:37:19;63.37;;;40.37;;
23270;SDS011;11804;51.118;17.058;2023-04-09T05:39:47;60.33;;;39.40;;
23270;SDS011;11804;51.118;17.058;2023-04-09T05:42:15;61.07;;;39.70;;
23270;SDS011;11804;51.118;17.058;2023-04-09T05:44:42;61.27;;;39.90;;
23270;SDS011;11804;51.118;17.058;2023-04-09T05:47:10;58.37;;;39.13;;
23270;SDS011;11804;51.118;17.058;2023-04-09T05:49:38;61.47;;;39.77;;
23270;SDS011;11804;51.118;17.058;2023-04-09T05:52:05;57.97;;;38.63;;
23270;SDS011;11804;51.118;17.058;2023-04-09T05:54:33;59.03;;;40.07;;
23270;SDS011;11804;51.118;17.058;2023-04-09T05:57:01;60.03;;;39.67;;
23270;SDS011;11804;51.118;17.058;2023-04-09T05:59:29;58.47;;;38.80;;
23270;SDS011;11804;51.118;17.058;2023-04-09T06:01:57;60.70;;;40.60;;
23270;SDS011;11804;51.118;17.058;2023-04-09T06:04:24;63.00;;;40.90;;
23270;SDS011;11804;51.118;17.058;2023-04-09T06:06:53;68.63;;;45.03;;
23270;SDS011;11804;51.118;17.058;2023-04-09T06:09:23;72.30;;;47.80;;
23270;SDS011;11804;51.118;17.058;2023-04-09T06:11:50;78.60;;;51.47;;
23270;SDS011;11804;51.118;17.058;2023-04-09T06:14:18;76.17;;;50.10;;
23270;SDS011;11804;51.118;17.058;2023-04-09T06:16:46;73.33;;;46.50;;
23270;SDS011;11804;51.118;17.058;2023-04-09T06:19:14;66.37;;;43.47;;
23270;SDS011;11804;51.118;17.058;2023-04-09T06:21:42;66.00;;;43.00;;
23270;SDS011;11804;51.118;17.058;2023-04-09T06:24:10;65.87;;;42.47;;
23270;SDS011;11804;51.118;17.058;2023-04-09T06:26:37;59.97;;;40.07;;
23270;SDS011;11804;51.118;17.058;2023-04-09T06:29:05;62.63;;;40.20;;
23270;SDS011;11804;51.118;17.058;2023-04-09T06:31:32;62.40;;;41.17;;
23270;SDS011;11804;51.118;17.058;2023-04-09T06:34:00;63.93;;;40.90;;
23270;SDS011;11804;51.118;17.058;2023-04-09T06:36:28;62.20;;;40.60;;
23270;SDS011;11804;51.118;17.058;2023-04-09T06:38:55;64.63;;;41.07;;
23270;SDS011;11804;51.118;17.058;2023-04-09T06:41:24;67.40;;;43.80;;
23270;SDS011;11804;51.118;17.058;2023-04-09T06:43:54;75.83;;;48.33;;
23270;SDS011;11804;51.118;17.058;2023-04-09T06:46:21;76.53;;;49.43;;
23270;SDS011;11804;51.118;17.058;2023-04-09T06:48:50;72.37;;;44.80;;
23270;SDS011;11804;51.118;17.058;2023-04-09T06:51:17;68.77;;;44.37;;
23270;SDS011;11804;51.118;17.058;2023-04-09T06:53:45;64.07;;;42.63;;
23270;SDS011;11804;51.118;17.058;2023-04-09T06:56:12;70.40;;;46.00;;
23270;SDS011;11804;51.118;17.058;2023-04-09T06:58:40;70.77;;;46.00;;
23270;SDS011;11804;51.118;17.058;2023-04-09T07:01:08;76.13;;;47.83;;
23270;SDS011;11804;51.118;17.058;2023-04-09T07:03:35;70.33;;;45.33;;
23270;SDS011;11804;51.118;17.058;2023-04-09T07:06:03;67.63;;;43.97;;
23270;SDS011;11804;51.118;17.058;2023-04-09T07:08:31;66.00;;;42.50;;
23270;SDS011;11804;51.118;17.058;2023-04-09T07:10:58;70.83;;;44.47;;
23270;SDS011;11804;51.118;17.058;2023-04-09T07:13:26;69.27;;;43.07;;
23270;SDS011;11804;51.118;17.058;2023-04-09T07:15:53;67.50;;;43.23;;
23270;SDS011;11804;51.118;17.058;2023-04-09T07:18:21;72.83;;;46.20;;
23270;SDS011;11804;51.118;17.058;2023-04-09T07:20:49;68.27;;;44.10;;
23270;SDS011;11804;51.118;17.058;2023-04-09T07:23:18;68.43;;;44.87;;
23270;SDS011;11804;51.118;17.058;2023-04-09T07:25:46;78.07;;;50.97;;
23270;SDS011;11804;51.118;17.058;2023-04-09T07:28:14;71.03;;;44.53;;
23270;SDS011;11804;51.118;17.058;2023-04-09T07:30:41;65.80;;;41.53;;
23270;SDS011;11804;51.118;17.058;2023-04-09T07:33:11;71.53;;;44.43;;
23270;SDS011;11804;51.118;17.058;2023-04-09T07:35:38;67.87;;;42.80;;
23270;SDS011;11804;51.118;17.058;2023-04-09T07:38:06;65.03;;;43.03;;
23270;SDS011;11804;51.118;17.058;2023-04-09T07:40:34;75.27;;;45.37;;
23270;SDS011;11804;51.118;17.058;2023-04-09T07:43:02;68.50;;;44.77;;
23270;SDS011;11804;51.118;17.058;2023-04-09T07:45:31;67.80;;;44.63;;
23270;SDS011;11804;51.118;17.058;2023-04-09T07:47:58;69.43;;;43.33;;
23270;SDS011;11804;51.118;17.058;2023-04-09T07:50:29;63.73;;;40.57;;
23270;SDS011;11804;51.118;17.058;2023-04-09T07:52:57;62.37;;;40.40;;
23270;SDS011;11804;51.118;17.058;2023-04-09T07:55:24;57.73;;;39.30;;
23270;SDS011;11804;51.118;17.058;2023-04-09T07:57:53;60.83;;;39.00;;
23270;SDS011;11804;51.118;17.058;2023-04-09T08:00:21;59.17;;;39.47;;
23270;SDS011;11804;51.118;17.058;2023-04-09T08:02:48;58.63;;;38.47;;
23270;SDS011;11804;51.118;17.058;2023-04-09T08:05:16;61.00;;;39.07;;
23270;SDS011;11804;51.118;17.058;2023-04-09T08:07:44;60.13;;;38.10;;
23270;SDS011;11804;51.118;17.058;2023-04-09T08:10:11;62.07;;;38.90;;
23270;SDS011;11804;51.118;17.058;2023-04-09T08:12:40;59.53;;;38.93;;
23270;SDS011;11804;51.118;17.058;2023-04-09T08:15:08;59.00;;;37.20;;
23270;SDS011;11804;51.118;17.058;2023-04-09T08:17:36;55.27;;;36.73;;
23270;SDS011;11804;51.118;17.058;2023-04-09T08:20:04;57.97;;;36.53;;
23270;SDS011;11804;51.118;17.058;2023-04-09T08:22:32;60.43;;;38.10;;
23270;SDS011;11804;51.118;17.058;2023-04-09T08:25:00;57.30;;;38.43;;
23270;SDS011;11804;51.118;17.058;2023-04-09T08:27:28;55.07;;;36.03;;
23270;SDS011;11804;51.118;17.058;2023-04-09T08:29:56;58.10;;;38.30;;
23270;SDS011;11804;51.118;17.058;2023-04-09T08:32:23;59.83;;;39.37;;
23270;SDS011;11804;51.118;17.058;2023-04-09T08:34:52;58.20;;;39.10;;
23270;SDS011;11804;51.118;17.058;2023-04-09T08:37:19;62.80;;;39.70;;
23270;SDS011;11804;51.118;17.058;2023-04-09T08:39:47;57.60;;;39.63;;
23270;SDS011;11804;51.118;17.058;2023-04-09T08:42:14;58.53;;;38.87;;
23270;SDS011;11804;51.118;17.058;2023-04-09T08:44:42;55.17;;;37.27;;
23270;SDS011;11804;51.118;17.058;2023-04-09T08:47:10;58.47;;;40.10;;
23270;SDS011;11804;51.118;17.058;2023-04-09T08:49:38;58.57;;;40.03;;
23270;SDS011;11804;51.118;17.058;2023-04-09T08:52:06;59.20;;;39.37;;
23270;SDS011;11804;51.118;17.058;2023-04-09T08:54:34;60.00;;;40.50;;
23270;SDS011;11804;51.118;17.058;2023-04-09T08:57:05;56.87;;;38.10;;
23270;SDS011;11804;51.118;17.058;2023-04-09T08:59:33;59.17;;;40.00;;
23270;SDS011;11804;51.118;17.058;2023-04-09T09:02:06;59.17;;;39.40;;
23270;SDS011;11804;51.118;17.058;2023-04-09T09:04:45;59.80;;;38.23;;
23270;SDS011;11804;51.118;17.058;2023-04-09T09:07:14;56.87;;;38.00;;
23270;SDS011;11804;51.118;17.058;2023-04-09T09:09:52;59.57;;;39.00;;
23270;SDS011;11804;51.118;17.058;2023-04-09T09:12:30;57.80;;;37.40;;
23270;SDS011;11804;51.118;17.058;2023-04-09T09:14:59;57.40;;;38.30;;
23270;SDS011;11804;51.118;17.058;2023-04-09T09:17:27;53.53;;;36.23;;
23270;SDS011;11804;51.118;17.058;2023-04-09T09:19:54;50.87;;;36.27;;
23270;SDS011;11804;51.118;17.058;2023-04-09T09:22:24;54.03;;;36.23;;
23270;SDS011;11804;51.118;17.058;2023-04-09T09:24:52;54.73;;;37.23;;
23270;SDS011;11804;51.118;17.058;2023-04-09T09:30:06;54.20;;;36.40;;
23270;SDS011;11804;51.118;17.058;2023-04-09T09:32:35;54.00;;;36.90;;
23270;SDS011;11804;51.118;17.058;2023-04-09T09:35:04;54.53;;;36.40;;
23270;SDS011;11804;51.118;17.058;2023-04-09T09:37:33;52.77;;;35.47;;
23270;SDS011;11804;51.118;17.058;2023-04-09T09:40:00;55.83;;;36.40;;
23270;SDS011;11804;51.118;17.058;2023-04-09T09:42:29;62.00;;;37.93;;
23270;SDS011;11804;51.118;17.058;2023-04-09T09:44:57;54.50;;;37.67;;
23270;SDS011;11804;51.118;17.058;2023-04-09T09:47:26;60.00;;;38.70;;
23270;SDS011;11804;51.118;17.058;2023-04-09T09:49:56;59.53;;;41.17;;
23270;SDS011;11804;51.118;17.058;2023-04-09T09:52:24;63.17;;;39.07;;
23270;SDS011;11804;51.118;17.058;2023-04-09T09:54:52;65.37;;;43.33;;
23270;SDS011;11804;51.118;17.058;2023-04-09T09:57:23;60.43;;;40.37;;
23270;SDS011;11804;51.118;17.058;2023-04-09T09:59:54;53.20;;;35.60;;
23270;SDS011;11804;51.118;17.058;2023-04-09T10:02:23;55.10;;;37.27;;
23270;SDS011;11804;51.118;17.058;2023-04-09T10:04:54;52.30;;;35.57;;
23270;SDS011;11804;51.118;17.058;2023-04-09T10:07:25;54.97;;;36.63;;
23270;SDS011;11804;51.118;17.058;2023-04-09T10:09:53;54.90;;;36.60;;
23270;SDS011;11804;51.118;17.058;2023-04-09T10:12:23;53.83;;;36.20;;
23270;SDS011;11804;51.118;17.058;2023-04-09T10:14:52;50.07;;;34.67;;
23270;SDS011;11804;51.118;17.058;2023-04-09T10:17:23;50.87;;;34.93;;
23270;SDS011;11804;51.118;17.058;2023-04-09T10:19:57;54.17;;;35.00;;
23270;SDS011;11804;51.118;17.058;2023-04-09T10:22:29;52.83;;;35.80;;
23270;SDS011;11804;51.118;17.058;2023-04-09T10:24:59;54.87;;;36.90;;
23270;SDS011;11804;51.118;17.058;2023-04-09T10:27:28;55.47;;;36.57;;
23270;SDS011;11804;51.118;17.058;2023-04-09T10:29:56;58.90;;;38.77;;
23270;SDS011;11804;51.118;17.058;2023-04-09T10:32:25;57.53;;;38.43;;
23270;SDS011;11804;51.118;17.058;2023-04-09T10:34:56;64.13;;;41.80;;
23270;SDS011;11804;51.118;17.058;2023-04-09T10:37:26;60.80;;;38.80;;
23270;SDS011;11804;51.118;17.058;2023-04-09T10:39:54;61.13;;;39.13;;
23270;SDS011;11804;51.118;17.058;2023-04-09T10:42:27;66.07;;;42.10;;
23270;SDS011;11804;51.118;17.058;2023-04-09T10:45:09;59.40;;;39.90;;
23270;SDS011;11804;51.118;17.058;2023-04-09T10:47:40;61.10;;;40.77;;
23270;SDS011;11804;51.118;17.058;2023-04-09T10:50:15;59.97;;;39.17;;
23270;SDS011;11804;51.118;17.058;2023-04-09T10:52:50;59.17;;;38.13;;
23270;SDS011;11804;51.118;17.058;2023-04-09T10:58:07;59.23;;;37.93;;
23270;SDS011;11804;51.118;17.058;2023-04-09T11:00:38;53.00;;;35.87;;
23270;SDS011;11804;51.118;17.058;2023-04-09T11:06:07;61.80;;;38.57;;
23270;SDS011;11804;51.118;17.058;2023-04-09T11:08:34;55.27;;;36.93;;
23270;SDS011;11804;51.118;17.058;2023-04-09T11:11:07;55.23;;;36.67;;
23270;SDS011;11804;51.118;17.058;2023-04-09T11:13:36;52.97;;;37.00;;
23270;SDS011;11804;51.118;17.058;2023-04-09T11:16:06;56.43;;;36.83;;
23270;SDS011;11804;51.118;17.058;2023-04-09T11:18:33;54.83;;;35.93;;
23270;SDS011;11804;51.118;17.058;2023-04-09T11:21:02;52.60;;;35.63;;
23270;SDS011;11804;51.118;17.058;2023-04-09T11:23:30;53.03;;;35.43;;
23270;SDS011;11804;51.118;17.058;2023-04-09T11:25:58;52.90;;;35.43;;
23270;SDS011;11804;51.118;17.058;2023-04-09T11:28:28;54.37;;;35.73;;
23270;SDS011;11804;51.118;17.058;2023-04-09T11:30:55;54.90;;;35.00;;
23270;SDS011;11804;51.118;17.058;2023-04-09T11:33:30;58.10;;;37.07;;
23270;SDS011;11804;51.118;17.058;2023-04-09T11:35:59;59.30;;;39.43;;
23270;SDS011;11804;51.118;17.058;2023-04-09T11:38:26;62.73;;;39.10;;
23270;SDS011;11804;51.118;17.058;2023-04-09T11:40:57;62.87;;;41.03;;
23270;SDS011;11804;51.118;17.058;2023-04-09T11:43:24;60.97;;;39.70;;
23270;SDS011;11804;51.118;17.058;2023-04-09T11:45:52;57.17;;;37.97;;
23270;SDS011;11804;51.118;17.058;2023-04-09T11:48:20;60.07;;;39.17;;
23270;SDS011;11804;51.118;17.058;2023-04-09T11:50:49;55.00;;;35.73;;
23270;SDS011;11804;51.118;17.058;2023-04-09T11:53:17;52.33;;;35.30;;
23270;SDS011;11804;51.118;17.058;2023-04-09T11:55:50;54.53;;;36.00;;
23270;SDS011;11804;51.118;17.058;2023-04-09T11:58:24;52.73;;;36.03;;
23270;SDS011;11804;51.118;17.058;2023-04-09T12:00:57;51.07;;;33.73;;
23270;SDS011;11804;51.118;17.058;2023-04-09T12:03:26;58.87;;;38.63;;
23270;SDS011;11804;51.118;17.058;2023-04-09T12:05:58;63.13;;;40.90;;
23270;SDS011;11804;51.118;17.058;2023-04-09T12:08:27;55.00;;;37.77;;
23270;SDS011;11804;51.118;17.058;2023-04-09T12:10:56;55.10;;;36.60;;
23270;SDS011;11804;51.118;17.058;2023-04-09T12:13:31;54.60;;;35.07;;
23270;SDS011;11804;51.118;17.058;2023-04-09T12:15:59;54.20;;;35.47;;
23270;SDS011;11804;51.118;17.058;2023-04-09T12:18:28;51.30;;;34.43;;
23270;SDS011;11804;51.118;17.058;2023-04-09T12:20:55;59.50;;;37.10;;
23270;SDS011;11804;51.118;17.058;2023-04-09T12:23:23;56.10;;;37.17;;
23270;SDS011;11804;51.118;17.058;2023-04-09T12:25:51;53.57;;;36.33;;
23270;SDS011;11804;51.118;17.058;2023-04-09T12:28:20;56.50;;;37.20;;
23270;SDS011;11804;51.118;17.058;2023-04-09T12:30:47;54.47;;;35.33;;
23270;SDS011;11804;51.118;17.058;2023-04-09T12:33:17;54.17;;;35.57;;
23270;SDS011;11804;51.118;17.058;2023-04-09T12:35:45;52.77;;;36.57;;
23270;SDS011;11804;51.118;17.058;2023-04-09T12:38:12;58.73;;;38.07;;
23270;SDS011;11804;51.118;17.058;2023-04-09T12:40:40;56.00;;;37.00;;
23270;SDS011;11804;51.118;17.058;2023-04-09T12:43:08;92.23;;;50.90;;
23270;SDS011;11804;51.118;17.058;2023-04-09T12:45:36;67.00;;;40.20;;
23270;SDS011;11804;51.118;17.058;2023-04-09T12:48:04;59.03;;;36.93;;
23270;SDS011;11804;51.118;17.058;2023-04-09T12:50:31;60.07;;;38.77;;
23270;SDS011;11804;51.118;17.058;2023-04-09T12:52:59;56.83;;;36.30;;
23270;SDS011;11804;51.118;17.058;2023-04-09T12:55:26;54.63;;;35.33;;
23270;SDS011;11804;51.118;17.058;2023-04-09T12:57:54;55.83;;;37.90;;
23270;SDS011;11804;51.118;17.058;2023-04-09T13:00:22;61.00;;;39.17;;
23270;SDS011;11804;51.118;17.058;2023-04-09T13:02:49;57.20;;;38.60;;
23270;SDS011;11804;51.118;17.058;2023-04-09T13:05:17;54.87;;;37.10;;
23270;SDS011;11804;51.118;17.058;2023-04-09T13:07:45;54.07;;;36.00;;
23270;SDS011;11804;51.118;17.058;2023-04-09T13:10:12;56.03;;;36.80;;
23270;SDS011;11804;51.118;17.058;2023-04-09T13:12:40;54.70;;;36.17;;
23270;SDS011;11804;51.118;17.058;2023-04-09T13:15:08;56.33;;;37.47;;
23270;SDS011;11804;51.118;17.058;2023-04-09T13:17:36;55.40;;;37.53;;
23270;SDS011;11804;51.118;17.058;2023-04-09T13:20:05;53.40;;;36.87;;
23270;SDS011;11804;51.118;17.058;2023-04-09T13:22:33;54.73;;;35.80;;
23270;SDS011;11804;51.118;17.058;2023-04-09T13:25:02;54.60;;;37.40;;
23270;SDS011;11804;51.118;17.058;2023-04-09T13:27:30;50.53;;;34.90;;
23270;SDS011;11804;51.118;17.058;2023-04-09T13:29:58;54.53;;;37.23;;
23270;SDS011;11804;51.118;17.058;2023-04-09T13:32:25;108.20;;;57.07;;
23270;SDS011;11804;51.118;17.058;2023-04-09T13:34:53;130.80;;;63.00;;
23270;SDS011;11804;51.118;17.058;2023-04-09T13:37:22;129.57;;;66.40;;
23270;SDS011;11804;51.118;17.058;2023-04-09T13:39:50;111.00;;;57.80;;
23270;SDS011;11804;51.118;17.058;2023-04-09T13:42:18;62.27;;;39.07;;
23270;SDS011;11804;51.118;17.058;2023-04-09T13:44:46;54.17;;;36.60;;
23270;SDS011;11804;51.118;17.058;2023-04-09T13:47:14;52.87;;;35.70;;
23270;SDS011;11804;51.118;17.058;2023-04-09T13:49:42;53.87;;;35.33;;
23270;SDS011;11804;51.118;17.058;2023-04-09T13:52:10;51.33;;;35.73;;
23270;SDS011;11804;51.118;17.058;2023-04-09T13:54:39;57.20;;;37.10;;
23270;SDS011;11804;51.118;17.058;2023-04-09T13:57:07;53.67;;;36.37;;
23270;SDS011;11804;51.118;17.058;2023-04-09T13:59:35;56.33;;;38.23;;
23270;SDS011;11804;51.118;17.058;2023-04-09T14:02:07;53.60;;;36.20;;
23270;SDS011;11804;51.118;17.058;2023-04-09T14:04:35;62.77;;;38.33;;
23270;SDS011;11804;51.118;17.058;2023-04-09T14:07:03;61.17;;;39.60;;
23270;SDS011;11804;51.118;17.058;2023-04-09T14:09:31;54.03;;;36.57;;
23270;SDS011;11804;51.118;17.058;2023-04-09T14:11:58;57.63;;;37.87;;
23270;SDS011;11804;51.118;17.058;2023-04-09T14:14:26;58.23;;;38.17;;
23270;SDS011;11804;51.118;17.058;2023-04-09T14:16:54;56.03;;;37.00;;
23270;SDS011;11804;51.118;17.058;2023-04-09T14:19:21;60.50;;;39.00;;
23270;SDS011;11804;51.118;17.058;2023-04-09T14:21:49;59.07;;;38.83;;
23270;SDS011;11804;51.118;17.058;2023-04-09T14:24:18;60.10;;;38.93;;
23270;SDS011;11804;51.118;17.058;2023-04-09T14:26:52;59.50;;;38.87;;
23270;SDS011;11804;51.118;17.058;2023-04-09T14:29:18;60.70;;;39.67;;
23270;SDS011;11804;51.118;17.058;2023-04-09T14:31:46;63.30;;;39.83;;
23270;SDS011;11804;51.118;17.058;2023-04-09T14:34:14;67.13;;;41.43;;